Vienna International Airport LOWW

Flugplatz Daten

Name: Vienna International Airport

Ident: LOWW

Lat: 48,11029816

Long: 16,56970024

Platzhöhe: 600 ft

IataCode: VIE

City: Vienna

Homepage: http://www.viennaairport.com/jart/prj3/via/website.jart?rel=en&reserve-mode=active/

Metar

2021/10/25 18:20
LOWW 251820Z 11008KT CAVOK 08/01 Q1023 NOSIG

Taf

2021/10/25 18:20
TAF LOWW 251715Z 2518/2624 14011KT CAVOK TX11/2614Z TN02/2606Z
BECMG 2603/2605 VRB04KT
TEMPO 2604/2607 2800 BCFG NSC PROB40
TEMPO 2604/2607 0800 FG VV002
TEMPO 2607/2609 2500 FEW002 BKN004

Webcams

Wien Schwechat Wien Schwechat
Gewünschte Webcam nicht vorhanden? Dann fügen Sie eine hinzu. Sie wird dann so schnell wie möglich freigeschaltet
Url: Title: